Asau, Samoa

8:50 PM WST on August 30, 2014 (GMT +1300)
Faleolo International | Change Station
CLOSE
Current Station
Airport
Location: Faleolo,
Elevation: 16 ft
Nearby Weather Stations

Elev 16 ft 13.83 °S, 172.01 °W | Updated 50 minutes ago

Mostly Cloudy
Mostly Cloudy
79 °F
Feels Like 79 °F
N
15
Wind Variable Wind from East

Today
High -- | Low -- °F
--% Chance of Precip.
Yesterday
High -- | Low -- °F
Precip. -- in
6:36 AM 6:26 PM
Waxing Crescent, 20% visible
Pressure 29.89 in
Visibility 6.2 miles
Clouds Few 1800 ft
Few 2000 ft
Scattered Clouds 14000 ft
Mostly Cloudy 28000 ft
Dew Point 72 °F
Humidity 78%
Rainfall 0.00 in
Snow Depth Not available.
UV 0 out of 12
Pollen Not available.
Air Quality Not available.
Flu Activity Not available.
METAR NSFA 300700Z 10013KT 9999 FEW018CB FEW020 SCT140 BKN280 26/22 Q1012

More Conditions Fewer Conditions

Pressure 29.89 in
Visibility 6.2 miles
Clouds Few 1800 ft
Few 2000 ft
Scattered Clouds 14000 ft
Mostly Cloudy 28000 ft
Dew Point 72 °F
Humidity 78%
Rainfall 0.00 in
Snow Depth Not available.
UV 0 out of 12
Pollen Not available.
Air Quality Not available.
Flu Activity Not available.
METAR NSFA 300700Z 10013KT 9999 FEW018CB FEW020 SCT140 BKN280 26/22 Q1012

More Conditions Fewer Conditions

10-Day Weather Forecast

Almanac

Astronomy

Aug. 30, 2014 Rise Set
Actual Time 6:36 AM WST 6:26 PM WST
Civil Twilight 6:14 AM WST 6:47 PM WST
Nautical Twilight 5:49 AM WST 7:12 PM WST
Astronomical Twilight 5:25 AM WST 7:37 PM WST
Moon 9:18 AM WST 9:59 PM WST
Length of Visible Light 12h 32m
Length of Day
11h 49m
Tomorrow will be 0m 42s longer.
Waxing Crescent, 20% of the Moon is Illuminated
Today
Waxing Crescent
Sep 2
First Quarter
Sep 8
Full
Sep 15
Last Quarter
Sep 24
New

Yesterday's Extremes

Country Highs Country Lows

Community

WunderPhotos

Upload Photos

1,748,465 photos uploaded!

Nearby

Snow Depth

Not available.

Earthquake Activity

City Distance Mag. Time & Date
No recent earthquake activity has been reported nearby.
Minimum magnitude displayed is 2.5.

Coastal Water Temperatures

Place Temperature
No Stations Reporting

Nearby Weather Stations